sensor_id;sensor_type;location;lat;lon;timestamp;P1;durP1;ratioP1;P2;durP2;ratioP2
2021;SDS011;1015;49.756;6.994;2023-01-29T00:01:10;14.10;;;10.00;;
2021;SDS011;1015;49.756;6.994;2023-01-29T00:03:39;13.90;;;10.80;;
2021;SDS011;1015;49.756;6.994;2023-01-29T00:06:07;12.43;;;9.83;;
2021;SDS011;1015;49.756;6.994;2023-01-29T00:08:34;12.20;;;10.07;;
2021;SDS011;1015;49.756;6.994;2023-01-29T00:11:02;10.97;;;9.10;;
2021;SDS011;1015;49.756;6.994;2023-01-29T00:13:29;13.30;;;9.97;;
2021;SDS011;1015;49.756;6.994;2023-01-29T00:15:58;13.30;;;9.90;;
2021;SDS011;1015;49.756;6.994;2023-01-29T00:18:26;13.27;;;10.00;;
2021;SDS011;1015;49.756;6.994;2023-01-29T00:20:55;13.00;;;9.47;;
2021;SDS011;1015;49.756;6.994;2023-01-29T00:23:22;14.43;;;9.97;;
2021;SDS011;1015;49.756;6.994;2023-01-29T00:25:50;11.83;;;9.33;;
2021;SDS011;1015;49.756;6.994;2023-01-29T00:28:17;12.10;;;9.27;;
2021;SDS011;1015;49.756;6.994;2023-01-29T00:30:44;13.57;;;9.33;;
2021;SDS011;1015;49.756;6.994;2023-01-29T00:33:11;15.23;;;10.87;;
2021;SDS011;1015;49.756;6.994;2023-01-29T00:35:39;14.87;;;10.10;;
2021;SDS011;1015;49.756;6.994;2023-01-29T00:38:07;13.77;;;8.93;;
2021;SDS011;1015;49.756;6.994;2023-01-29T00:40:38;13.03;;;9.40;;
2021;SDS011;1015;49.756;6.994;2023-01-29T00:43:23;12.17;;;9.60;;
2021;SDS011;1015;49.756;6.994;2023-01-29T00:46:08;13.63;;;10.27;;
2021;SDS011;1015;49.756;6.994;2023-01-29T00:48:35;14.43;;;10.70;;
2021;SDS011;1015;49.756;6.994;2023-01-29T00:51:03;15.07;;;10.50;;
2021;SDS011;1015;49.756;6.994;2023-01-29T00:53:31;16.47;;;11.37;;
2021;SDS011;1015;49.756;6.994;2023-01-29T00:55:59;16.83;;;11.80;;
2021;SDS011;1015;49.756;6.994;2023-01-29T00:58:26;15.47;;;11.10;;
2021;SDS011;1015;49.756;6.994;2023-01-29T01:00:58;14.27;;;10.10;;
2021;SDS011;1015;49.756;6.994;2023-01-29T01:03:26;14.27;;;10.47;;
2021;SDS011;1015;49.756;6.994;2023-01-29T01:06:01;15.00;;;10.90;;
2021;SDS011;1015;49.756;6.994;2023-01-29T01:08:29;16.03;;;10.57;;
2021;SDS011;1015;49.756;6.994;2023-01-29T01:11:15;13.80;;;10.90;;
2021;SDS011;1015;49.756;6.994;2023-01-29T01:13:43;16.40;;;10.50;;
2021;SDS011;1015;49.756;6.994;2023-01-29T01:16:10;13.70;;;9.17;;
2021;SDS011;1015;49.756;6.994;2023-01-29T01:18:38;14.73;;;10.37;;
2021;SDS011;1015;49.756;6.994;2023-01-29T01:21:05;13.40;;;9.53;;
2021;SDS011;1015;49.756;6.994;2023-01-29T01:23:33;12.80;;;9.17;;
2021;SDS011;1015;49.756;6.994;2023-01-29T01:26:00;14.33;;;9.40;;
2021;SDS011;1015;49.756;6.994;2023-01-29T01:28:29;14.83;;;9.50;;
2021;SDS011;1015;49.756;6.994;2023-01-29T01:30:56;15.40;;;10.70;;
2021;SDS011;1015;49.756;6.994;2023-01-29T01:33:23;14.30;;;9.87;;
2021;SDS011;1015;49.756;6.994;2023-01-29T01:35:50;17.30;;;11.87;;
2021;SDS011;1015;49.756;6.994;2023-01-29T01:38:18;17.50;;;11.27;;
2021;SDS011;1015;49.756;6.994;2023-01-29T01:40:45;15.00;;;11.10;;
2021;SDS011;1015;49.756;6.994;2023-01-29T01:43:12;14.17;;;10.70;;
2021;SDS011;1015;49.756;6.994;2023-01-29T01:45:41;13.70;;;10.57;;
2021;SDS011;1015;49.756;6.994;2023-01-29T01:48:11;20.20;;;12.67;;
2021;SDS011;1015;49.756;6.994;2023-01-29T01:50:40;14.30;;;10.47;;
2021;SDS011;1015;49.756;6.994;2023-01-29T01:53:08;14.80;;;10.60;;
2021;SDS011;1015;49.756;6.994;2023-01-29T01:55:36;15.20;;;10.50;;
2021;SDS011;1015;49.756;6.994;2023-01-29T01:58:05;14.70;;;10.60;;
2021;SDS011;1015;49.756;6.994;2023-01-29T02:00:33;19.37;;;11.70;;
2021;SDS011;1015;49.756;6.994;2023-01-29T02:03:01;16.57;;;11.10;;
2021;SDS011;1015;49.756;6.994;2023-01-29T02:05:47;17.63;;;11.70;;
2021;SDS011;1015;49.756;6.994;2023-01-29T02:08:34;16.93;;;10.60;;
2021;SDS011;1015;49.756;6.994;2023-01-29T02:11:21;16.30;;;10.90;;
2021;SDS011;1015;49.756;6.994;2023-01-29T02:13:48;22.93;;;11.30;;
2021;SDS011;1015;49.756;6.994;2023-01-29T02:16:18;16.67;;;11.43;;
2021;SDS011;1015;49.756;6.994;2023-01-29T02:18:46;15.57;;;10.83;;
2021;SDS011;1015;49.756;6.994;2023-01-29T02:21:19;17.03;;;11.80;;
2021;SDS011;1015;49.756;6.994;2023-01-29T02:24:09;17.33;;;10.97;;
2021;SDS011;1015;49.756;6.994;2023-01-29T02:26:40;16.10;;;10.33;;
2021;SDS011;1015;49.756;6.994;2023-01-29T02:29:11;16.97;;;11.20;;
2021;SDS011;1015;49.756;6.994;2023-01-29T02:31:51;15.57;;;10.97;;
2021;SDS011;1015;49.756;6.994;2023-01-29T02:34:20;12.80;;;9.60;;
2021;SDS011;1015;49.756;6.994;2023-01-29T02:36:56;11.60;;;9.33;;
2021;SDS011;1015;49.756;6.994;2023-01-29T02:39:27;13.57;;;9.00;;
2021;SDS011;1015;49.756;6.994;2023-01-29T02:41:57;12.57;;;8.87;;
2021;SDS011;1015;49.756;6.994;2023-01-29T02:44:29;16.93;;;10.60;;
2021;SDS011;1015;49.756;6.994;2023-01-29T02:47:00;14.07;;;10.30;;
2021;SDS011;1015;49.756;6.994;2023-01-29T02:49:30;12.60;;;9.60;;
2021;SDS011;1015;49.756;6.994;2023-01-29T02:51:59;10.07;;;8.33;;
2021;SDS011;1015;49.756;6.994;2023-01-29T02:54:30;12.07;;;9.10;;
2021;SDS011;1015;49.756;6.994;2023-01-29T02:56:59;12.87;;;8.63;;
2021;SDS011;1015;49.756;6.994;2023-01-29T02:59:29;10.60;;;8.23;;
2021;SDS011;1015;49.756;6.994;2023-01-29T03:02:00;12.70;;;9.20;;
2021;SDS011;1015;49.756;6.994;2023-01-29T03:04:29;12.20;;;9.20;;
2021;SDS011;1015;49.756;6.994;2023-01-29T03:06:57;11.27;;;8.40;;
2021;SDS011;1015;49.756;6.994;2023-01-29T03:09:28;12.13;;;8.63;;
2021;SDS011;1015;49.756;6.994;2023-01-29T03:12:01;12.87;;;9.30;;
2021;SDS011;1015;49.756;6.994;2023-01-29T03:14:44;11.63;;;9.20;;
2021;SDS011;1015;49.756;6.994;2023-01-29T03:17:26;12.70;;;9.43;;
2021;SDS011;1015;49.756;6.994;2023-01-29T03:19:55;11.80;;;8.90;;
2021;SDS011;1015;49.756;6.994;2023-01-29T03:22:23;9.97;;;7.90;;
2021;SDS011;1015;49.756;6.994;2023-01-29T03:24:53;12.40;;;8.70;;
2021;SDS011;1015;49.756;6.994;2023-01-29T03:27:39;9.70;;;7.60;;
2021;SDS011;1015;49.756;6.994;2023-01-29T03:30:28;12.70;;;9.13;;
2021;SDS011;1015;49.756;6.994;2023-01-29T03:33:14;10.93;;;7.90;;
2021;SDS011;1015;49.756;6.994;2023-01-29T03:35:45;12.07;;;8.70;;
2021;SDS011;1015;49.756;6.994;2023-01-29T03:38:13;11.17;;;8.33;;
2021;SDS011;1015;49.756;6.994;2023-01-29T03:40:42;11.53;;;7.80;;
2021;SDS011;1015;49.756;6.994;2023-01-29T03:43:12;12.13;;;8.73;;
2021;SDS011;1015;49.756;6.994;2023-01-29T03:45:45;10.07;;;7.80;;
2021;SDS011;1015;49.756;6.994;2023-01-29T03:48:16;10.73;;;8.07;;
2021;SDS011;1015;49.756;6.994;2023-01-29T03:50:46;11.00;;;7.77;;
2021;SDS011;1015;49.756;6.994;2023-01-29T03:53:19;10.63;;;8.07;;
2021;SDS011;1015;49.756;6.994;2023-01-29T03:55:52;9.70;;;7.37;;
2021;SDS011;1015;49.756;6.994;2023-01-29T03:58:22;9.30;;;7.00;;
2021;SDS011;1015;49.756;6.994;2023-01-29T04:00:53;11.00;;;8.00;;
2021;SDS011;1015;49.756;6.994;2023-01-29T04:03:23;10.67;;;7.40;;
2021;SDS011;1015;49.756;6.994;2023-01-29T04:05:50;9.77;;;6.80;;
2021;SDS011;1015;49.756;6.994;2023-01-29T04:08:22;12.77;;;7.83;;
2021;SDS011;1015;49.756;6.994;2023-01-29T04:10:51;12.10;;;8.10;;
2021;SDS011;1015;49.756;6.994;2023-01-29T04:13:21;10.07;;;6.60;;
2021;SDS011;1015;49.756;6.994;2023-01-29T04:15:51;10.50;;;7.20;;
2021;SDS011;1015;49.756;6.994;2023-01-29T04:18:21;10.20;;;6.83;;
2021;SDS011;1015;49.756;6.994;2023-01-29T04:20:49;9.13;;;6.70;;
2021;SDS011;1015;49.756;6.994;2023-01-29T04:23:18;10.83;;;7.10;;
2021;SDS011;1015;49.756;6.994;2023-01-29T04:25:46;10.27;;;7.50;;
2021;SDS011;1015;49.756;6.994;2023-01-29T04:28:19;10.53;;;7.10;;
2021;SDS011;1015;49.756;6.994;2023-01-29T04:30:49;11.20;;;7.00;;
2021;SDS011;1015;49.756;6.994;2023-01-29T04:33:27;8.20;;;6.60;;
2021;SDS011;1015;49.756;6.994;2023-01-29T04:36:08;10.30;;;7.00;;
2021;SDS011;1015;49.756;6.994;2023-01-29T04:38:41;8.83;;;6.60;;
2021;SDS011;1015;49.756;6.994;2023-01-29T04:41:14;14.13;;;7.83;;
2021;SDS011;1015;49.756;6.994;2023-01-29T04:43:44;12.13;;;8.30;;
2021;SDS011;1015;49.756;6.994;2023-01-29T04:46:12;9.37;;;7.20;;
2021;SDS011;1015;49.756;6.994;2023-01-29T04:48:45;11.00;;;7.23;;
2021;SDS011;1015;49.756;6.994;2023-01-29T04:51:15;11.00;;;7.40;;
2021;SDS011;1015;49.756;6.994;2023-01-29T04:53:46;10.80;;;7.47;;
2021;SDS011;1015;49.756;6.994;2023-01-29T04:56:16;10.33;;;7.10;;
2021;SDS011;1015;49.756;6.994;2023-01-29T04:58:45;10.37;;;7.43;;
2021;SDS011;1015;49.756;6.994;2023-01-29T05:01:13;10.73;;;7.53;;
2021;SDS011;1015;49.756;6.994;2023-01-29T05:03:43;11.40;;;7.70;;
2021;SDS011;1015;49.756;6.994;2023-01-29T05:06:14;12.23;;;8.43;;
2021;SDS011;1015;49.756;6.994;2023-01-29T05:08:41;9.73;;;7.43;;
2021;SDS011;1015;49.756;6.994;2023-01-29T05:11:09;12.33;;;8.00;;
2021;SDS011;1015;49.756;6.994;2023-01-29T05:13:38;9.17;;;7.33;;
2021;SDS011;1015;49.756;6.994;2023-01-29T05:16:07;9.97;;;7.40;;
2021;SDS011;1015;49.756;6.994;2023-01-29T05:18:35;8.73;;;7.50;;
2021;SDS011;1015;49.756;6.994;2023-01-29T05:21:03;14.13;;;8.37;;
2021;SDS011;1015;49.756;6.994;2023-01-29T05:23:33;9.13;;;7.23;;
2021;SDS011;1015;49.756;6.994;2023-01-29T05:26:00;12.27;;;7.90;;
2021;SDS011;1015;49.756;6.994;2023-01-29T05:28:27;11.40;;;8.40;;
2021;SDS011;1015;49.756;6.994;2023-01-29T05:30:54;11.43;;;8.20;;
2021;SDS011;1015;49.756;6.994;2023-01-29T05:33:22;10.87;;;7.97;;
2021;SDS011;1015;49.756;6.994;2023-01-29T05:35:49;11.80;;;8.27;;
2021;SDS011;1015;49.756;6.994;2023-01-29T05:38:17;8.73;;;7.57;;
2021;SDS011;1015;49.756;6.994;2023-01-29T05:40:46;11.33;;;8.53;;
2021;SDS011;1015;49.756;6.994;2023-01-29T05:43:14;12.77;;;8.40;;
2021;SDS011;1015;49.756;6.994;2023-01-29T05:45:42;10.33;;;7.83;;
2021;SDS011;1015;49.756;6.994;2023-01-29T05:48:09;10.63;;;7.63;;
2021;SDS011;1015;49.756;6.994;2023-01-29T05:50:36;10.80;;;8.23;;
2021;SDS011;1015;49.756;6.994;2023-01-29T05:53:04;15.50;;;7.73;;
2021;SDS011;1015;49.756;6.994;2023-01-29T05:55:31;11.20;;;7.90;;
2021;SDS011;1015;49.756;6.994;2023-01-29T05:58:00;13.13;;;9.30;;
2021;SDS011;1015;49.756;6.994;2023-01-29T06:00:27;12.60;;;7.87;;
2021;SDS011;1015;49.756;6.994;2023-01-29T06:02:55;12.47;;;8.13;;
2021;SDS011;1015;49.756;6.994;2023-01-29T06:05:22;11.83;;;8.07;;
2021;SDS011;1015;49.756;6.994;2023-01-29T06:07:49;12.50;;;8.30;;
2021;SDS011;1015;49.756;6.994;2023-01-29T06:10:17;13.10;;;8.40;;
2021;SDS011;1015;49.756;6.994;2023-01-29T06:12:44;12.23;;;8.60;;
2021;SDS011;1015;49.756;6.994;2023-01-29T06:15:13;14.30;;;9.10;;
2021;SDS011;1015;49.756;6.994;2023-01-29T06:17:40;13.23;;;8.37;;
2021;SDS011;1015;49.756;6.994;2023-01-29T06:20:09;14.50;;;9.27;;
2021;SDS011;1015;49.756;6.994;2023-01-29T06:22:37;16.00;;;9.37;;
2021;SDS011;1015;49.756;6.994;2023-01-29T06:25:05;15.90;;;9.60;;
2021;SDS011;1015;49.756;6.994;2023-01-29T06:27:32;15.87;;;9.70;;
2021;SDS011;1015;49.756;6.994;2023-01-29T06:29:59;12.13;;;8.70;;
2021;SDS011;1015;49.756;6.994;2023-01-29T06:32:28;14.10;;;9.43;;
2021;SDS011;1015;49.756;6.994;2023-01-29T06:34:55;13.70;;;9.23;;
2021;SDS011;1015;49.756;6.994;2023-01-29T06:37:22;13.90;;;9.07;;
2021;SDS011;1015;49.756;6.994;2023-01-29T06:39:50;14.60;;;9.53;;
2021;SDS011;1015;49.756;6.994;2023-01-29T06:42:17;14.60;;;8.80;;
2021;SDS011;1015;49.756;6.994;2023-01-29T06:44:51;15.47;;;8.63;;
2021;SDS011;1015;49.756;6.994;2023-01-29T06:47:19;16.00;;;9.80;;
2021;SDS011;1015;49.756;6.994;2023-01-29T06:49:47;14.97;;;10.07;;
2021;SDS011;1015;49.756;6.994;2023-01-29T06:52:15;16.00;;;9.90;;
2021;SDS011;1015;49.756;6.994;2023-01-29T06:54:42;13.07;;;9.40;;
2021;SDS011;1015;49.756;6.994;2023-01-29T06:57:09;14.10;;;9.00;;
2021;SDS011;1015;49.756;6.994;2023-01-29T06:59:37;16.23;;;9.20;;
2021;SDS011;1015;49.756;6.994;2023-01-29T07:02:04;14.97;;;9.97;;
2021;SDS011;1015;49.756;6.994;2023-01-29T07:04:31;13.53;;;9.07;;
2021;SDS011;1015;49.756;6.994;2023-01-29T07:07:01;17.63;;;9.80;;
2021;SDS011;1015;49.756;6.994;2023-01-29T07:09:28;14.93;;;9.50;;
2021;SDS011;1015;49.756;6.994;2023-01-29T07:11:55;14.00;;;9.43;;
2021;SDS011;1015;49.756;6.994;2023-01-29T07:14:23;14.30;;;9.23;;
2021;SDS011;1015;49.756;6.994;2023-01-29T07:16:50;18.53;;;10.40;;
2021;SDS011;1015;49.756;6.994;2023-01-29T07:19:17;14.53;;;9.03;;
2021;SDS011;1015;49.756;6.994;2023-01-29T07:21:44;16.77;;;10.40;;
2021;SDS011;1015;49.756;6.994;2023-01-29T07:24:13;14.67;;;10.10;;
2021;SDS011;1015;49.756;6.994;2023-01-29T07:26:41;17.27;;;11.33;;
2021;SDS011;1015;49.756;6.994;2023-01-29T07:29:08;14.90;;;9.67;;
2021;SDS011;1015;49.756;6.994;2023-01-29T07:31:35;15.20;;;9.73;;
2021;SDS011;1015;49.756;6.994;2023-01-29T07:34:03;15.60;;;9.97;;
2021;SDS011;1015;49.756;6.994;2023-01-29T07:36:30;15.60;;;9.93;;
2021;SDS011;1015;49.756;6.994;2023-01-29T07:38:57;14.63;;;9.50;;
2021;SDS011;1015;49.756;6.994;2023-01-29T07:41:26;16.70;;;10.33;;
2021;SDS011;1015;49.756;6.994;2023-01-29T07:43:53;17.93;;;10.87;;
2021;SDS011;1015;49.756;6.994;2023-01-29T07:46:21;19.10;;;10.90;;
2021;SDS011;1015;49.756;6.994;2023-01-29T07:48:48;19.07;;;11.47;;
2021;SDS011;1015;49.756;6.994;2023-01-29T07:51:15;22.43;;;12.07;;
2021;SDS011;1015;49.756;6.994;2023-01-29T07:53:43;18.80;;;12.63;;
2021;SDS011;1015;49.756;6.994;2023-01-29T07:56:10;20.57;;;12.30;;
2021;SDS011;1015;49.756;6.994;2023-01-29T07:58:38;21.03;;;11.73;;
2021;SDS011;1015;49.756;6.994;2023-01-29T08:01:06;19.60;;;13.33;;
2021;SDS011;1015;49.756;6.994;2023-01-29T08:03:34;22.77;;;15.00;;
2021;SDS011;1015;49.756;6.994;2023-01-29T08:06:01;17.80;;;12.30;;
2021;SDS011;1015;49.756;6.994;2023-01-29T08:08:29;15.80;;;10.73;;
2021;SDS011;1015;49.756;6.994;2023-01-29T08:10:59;17.23;;;11.13;;
2021;SDS011;1015;49.756;6.994;2023-01-29T08:13:27;18.57;;;12.70;;
2021;SDS011;1015;49.756;6.994;2023-01-29T08:15:59;18.67;;;11.53;;
2021;SDS011;1015;49.756;6.994;2023-01-29T08:18:26;17.23;;;11.53;;
2021;SDS011;1015;49.756;6.994;2023-01-29T08:20:57;16.03;;;11.00;;
2021;SDS011;1015;49.756;6.994;2023-01-29T08:23:24;15.10;;;9.37;;
2021;SDS011;1015;49.756;6.994;2023-01-29T08:25:52;15.40;;;9.40;;
2021;SDS011;1015;49.756;6.994;2023-01-29T08:28:19;18.93;;;10.30;;
2021;SDS011;1015;49.756;6.994;2023-01-29T08:30:46;16.40;;;10.20;;
2021;SDS011;1015;49.756;6.994;2023-01-29T08:33:15;13.70;;;9.40;;
2021;SDS011;1015;49.756;6.994;2023-01-29T08:35:42;17.23;;;10.20;;
2021;SDS011;1015;49.756;6.994;2023-01-29T08:38:14;21.60;;;10.63;;
2021;SDS011;1015;49.756;6.994;2023-01-29T08:40:41;13.00;;;9.37;;
2021;SDS011;1015;49.756;6.994;2023-01-29T08:43:09;16.70;;;10.63;;
2021;SDS011;1015;49.756;6.994;2023-01-29T08:45:38;15.83;;;9.40;;
2021;SDS011;1015;49.756;6.994;2023-01-29T08:48:06;14.97;;;9.23;;
2021;SDS011;1015;49.756;6.994;2023-01-29T08:50:35;16.30;;;9.47;;
2021;SDS011;1015;49.756;6.994;2023-01-29T08:53:03;14.57;;;9.73;;
2021;SDS011;1015;49.756;6.994;2023-01-29T08:55:31;17.33;;;9.47;;
2021;SDS011;1015;49.756;6.994;2023-01-29T08:57:59;15.30;;;9.93;;
2021;SDS011;1015;49.756;6.994;2023-01-29T09:00:26;15.77;;;10.27;;
2021;SDS011;1015;49.756;6.994;2023-01-29T09:02:53;15.20;;;9.80;;
2021;SDS011;1015;49.756;6.994;2023-01-29T09:05:21;14.77;;;10.13;;
2021;SDS011;1015;49.756;6.994;2023-01-29T09:07:49;14.97;;;10.63;;
2021;SDS011;1015;49.756;6.994;2023-01-29T09:10:17;14.87;;;10.13;;
2021;SDS011;1015;49.756;6.994;2023-01-29T09:12:44;14.63;;;9.80;;
2021;SDS011;1015;49.756;6.994;2023-01-29T09:15:11;11.60;;;9.00;;
2021;SDS011;1015;49.756;6.994;2023-01-29T09:17:38;11.87;;;8.60;;
2021;SDS011;1015;49.756;6.994;2023-01-29T09:20:07;10.97;;;8.07;;
2021;SDS011;1015;49.756;6.994;2023-01-29T09:22:35;11.17;;;8.90;;
2021;SDS011;1015;49.756;6.994;2023-01-29T09:25:04;14.33;;;10.00;;
2021;SDS011;1015;49.756;6.994;2023-01-29T09:27:31;12.83;;;9.03;;
2021;SDS011;1015;49.756;6.994;2023-01-29T09:29:58;11.47;;;8.30;;
2021;SDS011;1015;49.756;6.994;2023-01-29T09:32:25;13.27;;;9.17;;
2021;SDS011;1015;49.756;6.994;2023-01-29T09:34:54;13.90;;;9.60;;
2021;SDS011;1015;49.756;6.994;2023-01-29T09:37:21;11.03;;;8.33;;
2021;SDS011;1015;49.756;6.994;2023-01-29T09:39:49;15.10;;;8.50;;
2021;SDS011;1015;49.756;6.994;2023-01-29T09:42:18;14.13;;;9.40;;
2021;SDS011;1015;49.756;6.994;2023-01-29T09:44:50;12.37;;;9.60;;
2021;SDS011;1015;49.756;6.994;2023-01-29T09:47:22;12.93;;;9.10;;
2021;SDS011;1015;49.756;6.994;2023-01-29T09:49:50;12.63;;;8.63;;
2021;SDS011;1015;49.756;6.994;2023-01-29T09:52:19;13.07;;;9.33;;
2021;SDS011;1015;49.756;6.994;2023-01-29T09:54:50;13.40;;;8.63;;
2021;SDS011;1015;49.756;6.994;2023-01-29T09:57:23;11.07;;;8.40;;
2021;SDS011;1015;49.756;6.994;2023-01-29T09:59:52;12.63;;;9.40;;
2021;SDS011;1015;49.756;6.994;2023-01-29T10:02:22;12.03;;;8.57;;
2021;SDS011;1015;49.756;6.994;2023-01-29T10:05:02;10.93;;;8.33;;
2021;SDS011;1015;49.756;6.994;2023-01-29T10:07:43;11.33;;;8.47;;
2021;SDS011;1015;49.756;6.994;2023-01-29T10:10:22;12.10;;;8.63;;
2021;SDS011;1015;49.756;6.994;2023-01-29T10:13:04;12.43;;;8.87;;
2021;SDS011;1015;49.756;6.994;2023-01-29T10:15:39;9.60;;;7.73;;
2021;SDS011;1015;49.756;6.994;2023-01-29T10:18:28;10.13;;;8.97;;
2021;SDS011;1015;49.756;6.994;2023-01-29T10:21:00;9.70;;;8.17;;
2021;SDS011;1015;49.756;6.994;2023-01-29T10:23:31;11.80;;;8.83;;
2021;SDS011;1015;49.756;6.994;2023-01-29T10:25:59;10.87;;;8.80;;
2021;SDS011;1015;49.756;6.994;2023-01-29T10:28:29;10.40;;;8.20;;
2021;SDS011;1015;49.756;6.994;2023-01-29T10:30:58;10.13;;;8.50;;
2021;SDS011;1015;49.756;6.994;2023-01-29T10:33:27;11.13;;;8.07;;
2021;SDS011;1015;49.756;6.994;2023-01-29T10:35:57;12.57;;;8.70;;
2021;SDS011;1015;49.756;6.994;2023-01-29T10:38:28;10.60;;;8.87;;
2021;SDS011;1015;49.756;6.994;2023-01-29T10:40:59;11.47;;;8.10;;
2021;SDS011;1015;49.756;6.994;2023-01-29T10:43:31;13.13;;;8.80;;
2021;SDS011;1015;49.756;6.994;2023-01-29T10:46:06;10.93;;;8.67;;
2021;SDS011;1015;49.756;6.994;2023-01-29T10:48:39;10.17;;;7.83;;
2021;SDS011;1015;49.756;6.994;2023-01-29T10:51:11;9.47;;;7.87;;
2021;SDS011;1015;49.756;6.994;2023-01-29T10:59:11;9.00;;;7.40;;
2021;SDS011;1015;49.756;6.994;2023-01-29T11:01:45;11.13;;;8.33;;
2021;SDS011;1015;49.756;6.994;2023-01-29T11:04:12;9.10;;;7.33;;
2021;SDS011;1015;49.756;6.994;2023-01-29T11:06:40;12.80;;;8.50;;
2021;SDS011;1015;49.756;6.994;2023-01-29T11:09:08;12.37;;;8.60;;
2021;SDS011;1015;49.756;6.994;2023-01-29T11:11:38;13.00;;;8.90;;
2021;SDS011;1015;49.756;6.994;2023-01-29T11:14:11;23.47;;;15.97;;
2021;SDS011;1015;49.756;6.994;2023-01-29T11:16:40;13.57;;;10.37;;
2021;SDS011;1015;49.756;6.994;2023-01-29T11:19:07;10.70;;;7.33;;
2021;SDS011;1015;49.756;6.994;2023-01-29T11:21:49;11.87;;;9.07;;
2021;SDS011;1015;49.756;6.994;2023-01-29T11:24:16;15.90;;;10.43;;
2021;SDS011;1015;49.756;6.994;2023-01-29T11:26:44;10.83;;;7.60;;
2021;SDS011;1015;49.756;6.994;2023-01-29T11:31:59;9.43;;;7.77;;
2021;SDS011;1015;49.756;6.994;2023-01-29T11:34:27;10.50;;;8.30;;
2021;SDS011;1015;49.756;6.994;2023-01-29T11:36:56;8.37;;;6.70;;
2021;SDS011;1015;49.756;6.994;2023-01-29T11:39:24;10.30;;;7.60;;
2021;SDS011;1015;49.756;6.994;2023-01-29T11:41:54;11.47;;;7.53;;
2021;SDS011;1015;49.756;6.994;2023-01-29T11:44:31;10.47;;;7.80;;
2021;SDS011;1015;49.756;6.994;2023-01-29T11:47:10;11.10;;;7.47;;
2021;SDS011;1015;49.756;6.994;2023-01-29T11:49:38;10.67;;;7.37;;
2021;SDS011;1015;49.756;6.994;2023-01-29T11:52:06;9.90;;;7.47;;
2021;SDS011;1015;49.756;6.994;2023-01-29T11:54:35;11.20;;;8.40;;
2021;SDS011;1015;49.756;6.994;2023-01-29T11:57:03;12.20;;;7.97;;
2021;SDS011;1015;49.756;6.994;2023-01-29T11:59:39;10.50;;;7.53;;
2021;SDS011;1015;49.756;6.994;2023-01-29T12:02:16;11.37;;;8.27;;
2021;SDS011;1015;49.756;6.994;2023-01-29T12:04:44;12.50;;;8.40;;
2021;SDS011;1015;49.756;6.994;2023-01-29T12:07:13;10.43;;;7.90;;
2021;SDS011;1015;49.756;6.994;2023-01-29T12:09:44;9.87;;;7.27;;
2021;SDS011;1015;49.756;6.994;2023-01-29T12:12:25;11.17;;;8.60;;
2021;SDS011;1015;49.756;6.994;2023-01-29T12:15:01;10.23;;;7.43;;
2021;SDS011;1015;49.756;6.994;2023-01-29T12:17:30;11.00;;;7.50;;
2021;SDS011;1015;49.756;6.994;2023-01-29T12:20:00;10.07;;;7.57;;
2021;SDS011;1015;49.756;6.994;2023-01-29T12:22:31;10.97;;;8.87;;
2021;SDS011;1015;49.756;6.994;2023-01-29T12:25:06;10.40;;;7.80;;
2021;SDS011;1015;49.756;6.994;2023-01-29T12:27:34;10.03;;;7.93;;
2021;SDS011;1015;49.756;6.994;2023-01-29T12:30:06;11.57;;;8.80;;
2021;SDS011;1015;49.756;6.994;2023-01-29T12:32:40;11.60;;;8.80;;
2021;SDS011;1015;49.756;6.994;2023-01-29T12:35:11;12.63;;;8.83;;
2021;SDS011;1015;49.756;6.994;2023-01-29T12:37:44;12.80;;;8.87;;
2021;SDS011;1015;49.756;6.994;2023-01-29T12:40:14;12.73;;;9.07;;
2021;SDS011;1015;49.756;6.994;2023-01-29T12:42:43;10.40;;;7.60;;
2021;SDS011;1015;49.756;6.994;2023-01-29T12:45:14;10.37;;;8.50;;
2021;SDS011;1015;49.756;6.994;2023-01-29T12:47:45;10.67;;;9.30;;
2021;SDS011;1015;49.756;6.994;2023-01-29T12:50:16;11.00;;;9.60;;
2021;SDS011;1015;49.756;6.994;2023-01-29T12:52:46;10.37;;;8.90;;
2021;SDS011;1015;49.756;6.994;2023-01-29T12:55:15;12.70;;;9.50;;
2021;SDS011;1015;49.756;6.994;2023-01-29T12:57:45;11.37;;;9.40;;
2021;SDS011;1015;49.756;6.994;2023-01-29T13:00:14;10.30;;;9.20;;
2021;SDS011;1015;49.756;6.994;2023-01-29T13:02:47;11.00;;;9.37;;
2021;SDS011;1015;49.756;6.994;2023-01-29T13:05:17;10.13;;;8.60;;
2021;SDS011;1015;49.756;6.994;2023-01-29T13:07:46;11.57;;;9.90;;
2021;SDS011;1015;49.756;6.994;2023-01-29T13:10:15;12.60;;;10.33;;
2021;SDS011;1015;49.756;6.994;2023-01-29T13:12:47;11.93;;;10.10;;
2021;SDS011;1015;49.756;6.994;2023-01-29T13:15:19;14.43;;;10.50;;
2021;SDS011;1015;49.756;6.994;2023-01-29T13:17:50;15.40;;;10.50;;
2021;SDS011;1015;49.756;6.994;2023-01-29T13:20:20;15.50;;;11.27;;
2021;SDS011;1015;49.756;6.994;2023-01-29T13:22:49;13.17;;;10.00;;
2021;SDS011;1015;49.756;6.994;2023-01-29T13:25:17;14.77;;;11.20;;
2021;SDS011;1015;49.756;6.994;2023-01-29T13:27:44;13.30;;;10.80;;
2021;SDS011;1015;49.756;6.994;2023-01-29T13:30:25;13.37;;;10.30;;
2021;SDS011;1015;49.756;6.994;2023-01-29T13:32:54;12.50;;;10.70;;
2021;SDS011;1015;49.756;6.994;2023-01-29T13:35:32;13.67;;;10.73;;
2021;SDS011;1015;49.756;6.994;2023-01-29T13:38:00;13.80;;;10.30;;
2021;SDS011;1015;49.756;6.994;2023-01-29T13:40:28;14.17;;;10.67;;
2021;SDS011;1015;49.756;6.994;2023-01-29T13:42:55;15.20;;;10.73;;
2021;SDS011;1015;49.756;6.994;2023-01-29T13:45:24;13.70;;;10.27;;
2021;SDS011;1015;49.756;6.994;2023-01-29T13:47:52;13.63;;;10.57;;
2021;SDS011;1015;49.756;6.994;2023-01-29T13:50:23;16.07;;;11.73;;
2021;SDS011;1015;49.756;6.994;2023-01-29T13:52:52;16.10;;;11.47;;
2021;SDS011;1015;49.756;6.994;2023-01-29T13:55:25;14.20;;;10.97;;
2021;SDS011;1015;49.756;6.994;2023-01-29T13:57:55;16.60;;;12.23;;
2021;SDS011;1015;49.756;6.994;2023-01-29T14:08:57;17.63;;;12.13;;
2021;SDS011;1015;49.756;6.994;2023-01-29T14:11:35;18.27;;;12.33;;
2021;SDS011;1015;49.756;6.994;2023-01-29T14:14:02;17.80;;;11.40;;
2021;SDS011;1015;49.756;6.994;2023-01-29T14:16:49;16.30;;;11.30;;
2021;SDS011;1015;49.756;6.994;2023-01-29T14:19:17;15.07;;;10.50;;
2021;SDS011;1015;49.756;6.994;2023-01-29T14:21:47;14.90;;;11.17;;
2021;SDS011;1015;49.756;6.994;2023-01-29T14:24:16;16.57;;;11.00;;
2021;SDS011;1015;49.756;6.994;2023-01-29T14:26:46;14.53;;;11.60;;
2021;SDS011;1015;49.756;6.994;2023-01-29T14:29:17;16.53;;;11.40;;
2021;SDS011;1015;49.756;6.994;2023-01-29T14:31:46;16.47;;;11.50;;
2021;SDS011;1015;49.756;6.994;2023-01-29T14:34:16;16.67;;;11.87;;
2021;SDS011;1015;49.756;6.994;2023-01-29T14:36:46;14.17;;;11.30;;
2021;SDS011;1015;49.756;6.994;2023-01-29T14:39:23;16.27;;;11.33;;
2021;SDS011;1015;49.756;6.994;2023-01-29T14:41:51;15.50;;;11.60;;
2021;SDS011;1015;49.756;6.994;2023-01-29T14:47:04;15.67;;;11.53;;
2021;SDS011;1015;49.756;6.994;2023-01-29T14:49:47;16.87;;;12.97;;
2021;SDS011;1015;49.756;6.994;2023-01-29T14:52:14;17.40;;;11.50;;
2021;SDS011;1015;49.756;6.994;2023-01-29T14:54:43;19.43;;;13.77;;
2021;SDS011;1015;49.756;6.994;2023-01-29T14:57:12;17.30;;;12.40;;
2021;SDS011;1015;49.756;6.994;2023-01-29T14:59:43;16.60;;;12.20;;
2021;SDS011;1015;49.756;6.994;2023-01-29T15:02:14;16.07;;;12.37;;
2021;SDS011;1015;49.756;6.994;2023-01-29T15:04:43;20.73;;;13.47;;
2021;SDS011;1015;49.756;6.994;2023-01-29T15:07:18;24.97;;;16.23;;
2021;SDS011;1015;49.756;6.994;2023-01-29T15:09:51;16.70;;;12.43;;
2021;SDS011;1015;49.756;6.994;2023-01-29T15:12:23;21.40;;;14.30;;
2021;SDS011;1015;49.756;6.994;2023-01-29T15:14:58;20.27;;;13.97;;
2021;SDS011;1015;49.756;6.994;2023-01-29T15:17:27;24.63;;;14.50;;
2021;SDS011;1015;49.756;6.994;2023-01-29T15:19:55;21.77;;;14.30;;
2021;SDS011;1015;49.756;6.994;2023-01-29T15:22:22;20.80;;;14.33;;
2021;SDS011;1015;49.756;6.994;2023-01-29T15:25:05;21.70;;;14.37;;
2021;SDS011;1015;49.756;6.994;2023-01-29T15:27:33;22.90;;;14.50;;
2021;SDS011;1015;49.756;6.994;2023-01-29T15:30:01;21.67;;;14.70;;
2021;SDS011;1015;49.756;6.994;2023-01-29T15:32:30;22.20;;;14.30;;
2021;SDS011;1015;49.756;6.994;2023-01-29T15:34:58;21.37;;;13.13;;